Time;durP1;ratioP1;P1;durP2;ratioP2;P2;SDS_P1;SDS_P2;PMS_P1;PMS_P2;Temp;Humidity;BMP_temperature;BMP_pressure;BME280_temperature;BME280_humidity;BME280_pressure;Samples;Min_cycle;Max_cycle;Signal;HPM_P1;HPM_P2
2022/11/11 00:00:37;;;;;;;16.67;5.80;;;;;;;;;;5067859;28;20064;-71
2022/11/11 00:03:04;;;;;;;19.98;6.85;;;;;;;;;;5068993;28;20067;-72
2022/11/11 00:05:34;;;;;;;22.05;6.28;;;;;;;;;;5067810;28;20624;-71
2022/11/11 00:08:01;;;;;;;21.05;5.82;;;;;;;;;;5067772;28;20047;-71
2022/11/11 00:10:29;;;;;;;17.15;6.53;;;;;;;;;;5064909;28;20082;-73
2022/11/11 00:12:59;;;;;;;15.20;5.68;;;;;;;;;;5064059;28;20173;-71
2022/11/11 00:15:26;;;;;;;19.38;6.38;;;;;;;;;;5082774;28;20051;-72
2022/11/11 00:26:11;;;;;;;17.92;6.85;;;;;;;;;;5063519;28;20052;-71
2022/11/11 00:28:38;;;;;;;24.83;6.80;;;;;;;;;;5079818;28;20514;-71
2022/11/11 00:31:06;;;;;;;20.92;6.78;;;;;;;;;;5064192;28;20048;-72
2022/11/11 00:33:34;;;;;;;22.33;6.47;;;;;;;;;;5067265;28;20047;-71
2022/11/11 00:36:01;;;;;;;19.75;6.07;;;;;;;;;;5066986;28;20071;-71
2022/11/11 00:38:48;;;;;;;18.35;6.57;;;;;;;;;;5080088;28;20624;-71
2022/11/11 00:41:16;;;;;;;22.70;7.40;;;;;;;;;;5056559;28;20056;-73
2022/11/11 00:43:44;;;;;;;25.02;7.70;;;;;;;;;;5063683;28;20056;-71
2022/11/11 00:51:42;;;;;;;17.88;6.18;;;;;;;;;;5058306;28;20047;-71
2022/11/11 00:54:10;;;;;;;18.13;6.72;;;;;;;;;;5065279;28;20499;-72
2022/11/11 00:56:37;;;;;;;17.42;7.50;;;;;;;;;;5062413;28;20044;-72
2022/11/11 00:59:05;;;;;;;21.42;7.30;;;;;;;;;;5063407;28;20048;-73
2022/11/11 01:01:32;;;;;;;20.27;7.43;;;;;;;;;;5081453;28;20488;-73
2022/11/11 01:04:01;;;;;;;18.08;6.82;;;;;;;;;;5061017;28;20067;-71
2022/11/11 01:06:28;;;;;;;21.80;7.20;;;;;;;;;;5058705;28;20055;-72
2022/11/11 01:08:56;;;;;;;19.52;7.30;;;;;;;;;;5060064;28;20056;-71
2022/11/11 01:11:23;;;;;;;23.30;7.30;;;;;;;;;;5079541;28;20151;-72
2022/11/11 01:13:53;;;;;;;24.30;6.85;;;;;;;;;;5064358;28;20059;-71
2022/11/11 01:16:21;;;;;;;29.15;7.93;;;;;;;;;;5063724;28;20063;-72
2022/11/11 01:18:49;;;;;;;20.60;7.22;;;;;;;;;;5060627;28;21249;-72
2022/11/11 01:21:21;;;;;;;15.85;6.93;;;;;;;;;;5062609;28;20758;-71
2022/11/11 01:23:49;;;;;;;19.10;7.28;;;;;;;;;;5081489;28;20055;-71
2022/11/11 01:26:17;;;;;;;21.13;7.15;;;;;;;;;;5066587;28;20052;-73
2022/11/11 01:28:45;;;;;;;20.77;6.95;;;;;;;;;;5067716;28;20048;-71
2022/11/11 01:31:13;;;;;;;25.75;6.70;;;;;;;;;;5060208;28;20055;-75
2022/11/11 01:33:40;;;;;;;19.17;6.82;;;;;;;;;;5057008;28;20105;-71
2022/11/11 01:36:09;;;;;;;21.00;6.80;;;;;;;;;;5067443;28;20048;-72
2022/11/11 01:38:37;;;;;;;20.70;6.95;;;;;;;;;;5081316;28;20056;-73
2022/11/11 01:41:31;;;;;;;19.17;6.90;;;;;;;;;;5062369;28;20045;-72
2022/11/11 01:43:53;;;;;;;19.35;6.50;;;;;;;;;;5054907;28;20052;-73
2022/11/11 01:46:29;;;;;;;22.45;6.50;;;;;;;;;;5061730;28;20135;-73
2022/11/11 01:51:45;;;;;;;22.90;6.18;;;;;;;;;;5060295;28;20531;-73
2022/11/11 01:54:15;;;;;;;19.83;5.85;;;;;;;;;;5058834;28;20044;-74
2022/11/11 01:56:43;;;;;;;16.65;4.97;;;;;;;;;;5078836;28;20051;-72
2022/11/11 01:59:12;;;;;;;15.05;5.47;;;;;;;;;;5056942;28;20063;-72
2022/11/11 02:01:40;;;;;;;15.95;5.30;;;;;;;;;;5062602;28;20059;-71
2022/11/11 02:06:54;;;;;;;22.33;4.75;;;;;;;;;;5062530;28;20049;-72
2022/11/11 02:09:23;;;;;;;20.35;4.90;;;;;;;;;;5060093;28;20051;-71
2022/11/11 02:14:42;;;;;;;25.38;5.22;;;;;;;;;;5062931;28;20052;-71
2022/11/11 02:17:09;;;;;;;;;;;;;;;;;;5066301;28;20055;-71
2022/11/11 02:19:41;;;;;;;25.33;5.10;;;;;;;;;;5063654;28;19928;-73
2022/11/11 02:22:12;;;;;;;17.33;4.78;;;;;;;;;;5084145;28;20075;-72
2022/11/11 02:24:42;;;;;;;13.77;4.72;;;;;;;;;;5066218;28;20044;-72
2022/11/11 02:27:10;;;;;;;20.95;4.80;;;;;;;;;;5084891;28;20123;-74
2022/11/11 02:29:38;;;;;;;14.45;4.18;;;;;;;;;;5064320;28;20044;-72
2022/11/11 02:32:05;;;;;;;12.68;4.07;;;;;;;;;;5060156;28;20044;-72
2022/11/11 02:34:33;;;;;;;20.38;4.82;;;;;;;;;;5064088;28;20584;-72
2022/11/11 02:37:01;;;;;;;19.25;4.63;;;;;;;;;;5084733;28;20502;-72
2022/11/11 02:39:29;;;;;;;23.33;5.50;;;;;;;;;;5067181;28;20080;-72
2022/11/11 02:41:58;;;;;;;20.30;6.22;;;;;;;;;;5067117;28;20086;-72
2022/11/11 02:44:25;;;;;;;18.92;6.15;;;;;;;;;;5087664;28;20048;-71
2022/11/11 02:46:53;;;;;;;22.80;6.75;;;;;;;;;;5083756;28;20410;-71
2022/11/11 02:49:20;;;;;;;16.77;6.88;;;;;;;;;;5065762;28;20053;-72
2022/11/11 02:51:48;;;;;;;20.90;7.30;;;;;;;;;;5064856;28;20059;-71
2022/11/11 02:54:15;;;;;;;22.58;8.85;;;;;;;;;;5080362;28;20057;-72
2022/11/11 02:59:28;;;;;;;25.02;10.27;;;;;;;;;;5065991;28;20051;-71
2022/11/11 03:01:56;;;;;;;26.58;11.23;;;;;;;;;;5081705;28;20051;-72
2022/11/11 03:04:23;;;;;;;24.88;11.50;;;;;;;;;;5061189;28;20048;-72
2022/11/11 03:06:50;;;;;;;25.35;12.52;;;;;;;;;;5067573;28;20056;-71
2022/11/11 03:09:17;;;;;;;23.20;11.63;;;;;;;;;;5068156;28;20044;-71
2022/11/11 03:11:44;;;;;;;24.13;11.88;;;;;;;;;;5069241;28;20063;-71
2022/11/11 03:14:12;;;;;;;26.25;12.07;;;;;;;;;;5063887;28;20161;-74
2022/11/11 03:19:25;;;;;;;23.27;11.20;;;;;;;;;;5061875;28;20486;-74
2022/11/11 03:21:54;;;;;;;28.40;11.18;;;;;;;;;;5064407;28;20059;-72
2022/11/11 03:24:21;;;;;;;24.75;10.90;;;;;;;;;;5061158;28;20052;-71
2022/11/11 03:26:48;;;;;;;29.40;10.77;;;;;;;;;;5070571;28;20052;-74
2022/11/11 03:29:15;;;;;;;26.95;10.30;;;;;;;;;;5055085;28;20044;-71
2022/11/11 03:31:43;;;;;;;23.40;9.73;;;;;;;;;;5063676;28;20059;-71
2022/11/11 03:34:20;;;;;;;21.42;9.10;;;;;;;;;;5084675;28;20052;-71
2022/11/11 03:39:32;;;;;;;28.35;9.05;;;;;;;;;;5078984;28;20109;-71
2022/11/11 03:41:59;;;;;;;25.15;9.10;;;;;;;;;;5067567;28;20048;-71
2022/11/11 03:44:27;;;;;;;25.40;9.52;;;;;;;;;;5069357;28;20093;-72
2022/11/11 03:46:56;;;;;;;21.75;9.10;;;;;;;;;;5062375;28;20070;-72
2022/11/11 03:49:23;;;;;;;17.77;8.70;;;;;;;;;;5082937;28;20047;-73
2022/11/11 03:51:50;;;;;;;23.48;8.95;;;;;;;;;;5078457;28;21252;-72
2022/11/11 03:54:17;;;;;;;19.83;8.95;;;;;;;;;;5063989;28;20048;-72
2022/11/11 03:56:45;;;;;;;24.42;10.05;;;;;;;;;;5067432;28;20418;-72
2022/11/11 03:59:12;;;;;;;25.52;9.93;;;;;;;;;;5063109;28;20051;-75
2022/11/11 04:18:07;;;;;;;23.48;11.55;;;;;;;;;;5078752;28;21190;-72
2022/11/11 04:23:20;;;;;;;32.33;14.80;;;;;;;;;;5078418;28;20063;-72
2022/11/11 04:25:49;;;;;;;30.15;15.30;;;;;;;;;;5067584;28;20052;-71
2022/11/11 04:31:01;;;;;;;32.75;18.42;;;;;;;;;;5081783;28;20059;-72
2022/11/11 04:33:27;;;;;;;37.55;19.08;;;;;;;;;;5066567;28;20057;-72
2022/11/11 04:35:56;;;;;;;36.72;19.05;;;;;;;;;;5067891;28;20058;-71
2022/11/11 04:41:09;;;;;;;32.08;19.27;;;;;;;;;;5086878;28;20054;-72
2022/11/11 04:45:26;;;;;;;37.50;19.90;;;;;;;;;;5064727;28;20051;-71
2022/11/11 04:46:23;;;;;;;34.83;19.95;;;;;;;;;;5063006;28;20819;-71
2022/11/11 04:48:50;;;;;;;35.25;19.70;;;;;;;;;;5085748;28;20131;-72
2022/11/11 04:51:19;;;;;;;33.10;19.40;;;;;;;;;;5061178;28;20498;-71
2022/11/11 04:53:46;;;;;;;41.58;20.45;;;;;;;;;;5081938;28;20525;-74
2022/11/11 05:04:24;;;;;;;34.92;20.77;;;;;;;;;;5060101;28;20114;-71
2022/11/11 05:09:37;;;;;;;38.97;22.10;;;;;;;;;;5077690;28;20048;-71
2022/11/11 05:12:05;;;;;;;36.05;21.85;;;;;;;;;;5079719;28;20054;-71
2022/11/11 05:22:47;;;;;;;42.53;23.60;;;;;;;;;;5083039;28;20097;-72
2022/11/11 05:25:28;;;;;;;38.83;22.45;;;;;;;;;;5065209;28;20052;-72
2022/11/11 05:27:55;;;;;;;46.42;23.75;;;;;;;;;;5069232;28;20474;-71
2022/11/11 05:30:24;;;;;;;38.15;24.08;;;;;;;;;;5075209;28;20048;-71
2022/11/11 05:32:51;;;;;;;50.10;23.67;;;;;;;;;;5078198;28;20716;-72
2022/11/11 05:35:19;;;;;;;46.22;23.92;;;;;;;;;;5081509;28;20052;-71
2022/11/11 05:38:19;;;;;;;41.22;23.20;;;;;;;;;;5082168;28;20063;-72
2022/11/11 05:40:35;;;;;;;38.97;23.02;;;;;;;;;;5060635;28;20056;-74
2022/11/11 05:43:03;;;;;;;50.38;24.42;;;;;;;;;;5060176;28;20052;-71
2022/11/11 05:45:30;;;;;;;47.25;25.15;;;;;;;;;;5062307;28;20060;-72
2022/11/11 05:48:01;;;;;;;46.33;23.90;;;;;;;;;;5068557;28;20064;-72
2022/11/11 05:50:29;;;;;;;42.75;23.42;;;;;;;;;;5055597;28;20410;-71
2022/11/11 05:52:57;;;;;;;44.22;24.60;;;;;;;;;;5063140;28;20056;-72
2022/11/11 05:55:25;;;;;;;45.17;23.60;;;;;;;;;;5058150;28;20056;-72
2022/11/11 05:57:52;;;;;;;41.65;23.92;;;;;;;;;;5058438;28;20059;-72
2022/11/11 06:00:19;;;;;;;44.55;23.88;;;;;;;;;;5057815;28;20345;-71
2022/11/11 06:02:46;;;;;;;44.85;24.48;;;;;;;;;;5057563;28;20059;-71
2022/11/11 06:05:14;;;;;;;45.85;25.27;;;;;;;;;;5060026;28;20170;-74
2022/11/11 06:07:41;;;;;;;43.55;24.35;;;;;;;;;;5057502;28;20061;-72
2022/11/11 06:13:06;;;;;;;44.97;24.40;;;;;;;;;;5066165;28;20055;-72
2022/11/11 06:15:33;;;;;;;46.53;24.70;;;;;;;;;;5065041;28;20045;-72
2022/11/11 06:18:01;;;;;;;50.00;25.40;;;;;;;;;;5065046;28;20055;-72
2022/11/11 06:20:28;;;;;;;45.95;25.67;;;;;;;;;;5062043;28;20060;-72
2022/11/11 06:22:56;;;;;;;42.53;24.70;;;;;;;;;;5065447;28;20052;-75
2022/11/11 06:28:09;;;;;;;49.78;24.20;;;;;;;;;;5062995;28;20049;-72
2022/11/11 06:30:36;;;;;;;50.65;27.48;;;;;;;;;;5060609;28;20052;-72
2022/11/11 06:33:06;;;;;;;50.08;26.13;;;;;;;;;;5064297;28;20150;-71
2022/11/11 06:35:34;;;;;;;49.38;25.38;;;;;;;;;;5062527;28;20148;-73
2022/11/11 06:38:01;;;;;;;53.42;26.90;;;;;;;;;;5062701;28;20466;-70
2022/11/11 06:40:30;;;;;;;48.05;27.13;;;;;;;;;;5058628;28;20033;-71
2022/11/11 06:42:57;;;;;;;43.05;25.65;;;;;;;;;;5062654;28;20483;-71
2022/11/11 06:45:25;;;;;;;50.65;26.90;;;;;;;;;;5082505;28;20467;-71
2022/11/11 06:47:52;;;;;;;45.42;25.50;;;;;;;;;;5066417;28;20051;-73
2022/11/11 06:50:19;;;;;;;45.58;26.58;;;;;;;;;;5063939;28;20394;-71
2022/11/11 06:52:47;;;;;;;48.90;26.50;;;;;;;;;;5065682;28;20067;-72
2022/11/11 06:55:14;;;;;;;54.97;26.83;;;;;;;;;;5081218;28;20048;-71
2022/11/11 06:57:43;;;;;;;49.75;26.40;;;;;;;;;;5062972;28;20051;-71
2022/11/11 07:00:10;;;;;;;49.22;27.23;;;;;;;;;;5083121;28;20052;-72
2022/11/11 07:02:38;;;;;;;46.95;26.30;;;;;;;;;;5065592;28;20060;-70
2022/11/11 07:05:05;;;;;;;55.00;28.00;;;;;;;;;;5064411;28;20093;-71
2022/11/11 07:07:33;;;;;;;53.38;28.30;;;;;;;;;;5069370;28;20048;-71
2022/11/11 07:10:00;;;;;;;47.03;27.65;;;;;;;;;;5068306;28;20059;-71
2022/11/11 07:12:27;;;;;;;51.72;27.05;;;;;;;;;;5069030;28;20063;-71
2022/11/11 07:14:56;;;;;;;46.38;26.20;;;;;;;;;;5077251;28;20059;-72
2022/11/11 07:17:23;;;;;;;50.92;27.13;;;;;;;;;;5069726;28;20047;-71
2022/11/11 07:19:50;;;;;;;44.70;25.90;;;;;;;;;;5082834;28;20793;-72
2022/11/11 07:22:17;;;;;;;49.05;26.20;;;;;;;;;;5073338;28;20078;-72
2022/11/11 07:24:44;;;;;;;48.17;27.33;;;;;;;;;;5063653;28;20488;-71
2022/11/11 07:27:12;;;;;;;46.25;27.50;;;;;;;;;;5085511;28;20121;-72
2022/11/11 07:29:39;;;;;;;48.25;27.55;;;;;;;;;;5084695;28;20044;-73
2022/11/11 07:32:07;;;;;;;48.45;26.98;;;;;;;;;;5086505;28;20060;-71
2022/11/11 07:34:35;;;;;;;47.53;26.83;;;;;;;;;;5085661;28;20058;-72
2022/11/11 07:37:02;;;;;;;47.53;26.88;;;;;;;;;;5063811;28;20084;-72
2022/11/11 07:39:29;;;;;;;52.45;26.73;;;;;;;;;;5055946;28;20052;-72
2022/11/11 07:41:56;;;;;;;48.25;26.38;;;;;;;;;;5079204;28;20135;-71
2022/11/11 07:44:24;;;;;;;46.55;25.38;;;;;;;;;;5060358;28;20055;-73
2022/11/11 07:46:51;;;;;;;46.90;27.92;;;;;;;;;;5064388;28;20054;-72
2022/11/11 07:49:20;;;;;;;46.63;25.98;;;;;;;;;;5065511;28;20044;-71
2022/11/11 07:51:47;;;;;;;47.05;26.92;;;;;;;;;;5077446;28;20055;-72
2022/11/11 07:54:14;;;;;;;47.42;26.83;;;;;;;;;;5058513;28;20060;-71
2022/11/11 07:56:41;;;;;;;44.45;25.17;;;;;;;;;;5067782;28;20056;-71
2022/11/11 07:59:09;;;;;;;45.13;25.83;;;;;;;;;;5066290;28;20052;-72
2022/11/11 08:01:36;;;;;;;44.22;25.15;;;;;;;;;;5067054;28;20052;-72
2022/11/11 08:04:03;;;;;;;47.60;26.30;;;;;;;;;;5075157;28;20052;-71
2022/11/11 08:06:32;;;;;;;48.42;25.85;;;;;;;;;;5067992;28;20050;-71
2022/11/11 08:08:59;;;;;;;47.70;26.33;;;;;;;;;;5086441;28;20048;-71
2022/11/11 08:14:07;;;;;;;44.42;24.77;;;;;;;;;;5085202;28;20432;-72
2022/11/11 08:16:35;;;;;;;45.95;25.02;;;;;;;;;;5080676;28;20048;-71
2022/11/11 08:19:02;;;;;;;42.00;25.23;;;;;;;;;;5062364;28;20056;-71
2022/11/11 08:21:29;;;;;;;43.05;25.05;;;;;;;;;;5085537;28;20075;-72
2022/11/11 08:23:58;;;;;;;43.50;25.30;;;;;;;;;;5074058;28;20056;-71
2022/11/11 08:26:25;;;;;;;47.08;26.17;;;;;;;;;;5065700;28;20044;-71
2022/11/11 08:28:53;;;;;;;44.42;24.77;;;;;;;;;;5064522;28;20117;-73
2022/11/11 08:31:20;;;;;;;49.65;26.95;;;;;;;;;;5060642;28;20416;-72
2022/11/11 08:33:47;;;;;;;41.45;24.98;;;;;;;;;;5084021;28;20518;-71
2022/11/11 08:36:14;;;;;;;42.55;25.15;;;;;;;;;;5063676;28;20063;-71
2022/11/11 08:38:43;;;;;;;49.53;26.00;;;;;;;;;;5068327;28;20183;-72
2022/11/11 08:41:12;;;;;;;47.58;26.05;;;;;;;;;;5074948;28;20052;-73
2022/11/11 08:43:39;;;;;;;46.22;26.17;;;;;;;;;;5080110;28;20483;-71
2022/11/11 08:46:06;;;;;;;43.78;26.45;;;;;;;;;;5065050;28;20052;-73
2022/11/11 08:48:33;;;;;;;48.22;26.65;;;;;;;;;;5062764;28;20055;-71
2022/11/11 08:51:01;;;;;;;45.50;26.05;;;;;;;;;;5079691;28;20062;-71
2022/11/11 08:53:28;;;;;;;51.13;27.60;;;;;;;;;;5080754;28;20048;-72
2022/11/11 08:55:56;;;;;;;47.28;26.42;;;;;;;;;;5064436;28;20139;-71
2022/11/11 08:58:24;;;;;;;51.10;27.50;;;;;;;;;;5059092;28;20174;-71
2022/11/11 09:00:51;;;;;;;45.72;27.02;;;;;;;;;;5081830;28;20047;-72
2022/11/11 09:03:19;;;;;;;49.45;26.42;;;;;;;;;;5081166;28;20048;-71
2022/11/11 09:05:46;;;;;;;48.88;27.08;;;;;;;;;;5084829;28;20052;-71
2022/11/11 09:08:14;;;;;;;47.03;26.25;;;;;;;;;;5083623;28;20109;-73
2022/11/11 09:10:41;;;;;;;47.85;27.35;;;;;;;;;;5079265;28;20036;-70
2022/11/11 09:13:08;;;;;;;44.50;25.50;;;;;;;;;;5064315;28;20052;-72
2022/11/11 09:15:37;;;;;;;49.28;28.00;;;;;;;;;;5080773;28;20055;-72
2022/11/11 09:18:04;;;;;;;51.47;27.98;;;;;;;;;;5064891;28;20781;-71
2022/11/11 09:20:31;;;;;;;54.28;27.48;;;;;;;;;;5080793;28;20059;-72
2022/11/11 09:22:58;;;;;;;46.97;28.23;;;;;;;;;;5083813;28;20040;-72
2022/11/11 09:25:26;;;;;;;46.90;26.67;;;;;;;;;;5063570;28;20052;-73
2022/11/11 09:27:57;;;;;;;46.60;27.33;;;;;;;;;;5063333;28;20391;-71
2022/11/11 09:30:24;;;;;;;46.92;25.98;;;;;;;;;;5065120;28;20043;-72
2022/11/11 09:32:53;;;;;;;49.92;26.15;;;;;;;;;;5081645;28;20043;-71
2022/11/11 09:35:20;;;;;;;48.78;26.17;;;;;;;;;;5063082;28;20063;-71
2022/11/11 09:37:53;;;;;;;49.10;27.20;;;;;;;;;;5061310;28;20049;-71
2022/11/11 09:40:22;;;;;;;54.10;26.70;;;;;;;;;;5061128;28;20406;-72
2022/11/11 09:42:56;;;;;;;49.25;27.13;;;;;;;;;;5068286;28;20402;-72
2022/11/11 09:45:27;;;;;;;53.80;27.15;;;;;;;;;;5079989;28;20056;-71
2022/11/11 09:48:00;;;;;;;45.53;26.60;;;;;;;;;;5078049;28;20044;-72
2022/11/11 09:50:29;;;;;;;46.22;25.88;;;;;;;;;;5063414;28;20071;-71
2022/11/11 09:53:00;;;;;;;49.50;27.98;;;;;;;;;;5060199;28;20053;-71
2022/11/11 09:55:28;;;;;;;47.13;26.85;;;;;;;;;;5060700;28;20059;-71
2022/11/11 09:57:58;;;;;;;53.70;28.25;;;;;;;;;;5083099;28;20047;-71
2022/11/11 10:00:28;;;;;;;49.15;27.77;;;;;;;;;;5082225;28;20058;-71
2022/11/11 10:03:00;;;;;;;46.65;27.63;;;;;;;;;;5065330;28;20040;-72
2022/11/11 10:05:29;;;;;;;44.65;26.10;;;;;;;;;;5080090;28;20506;-73
2022/11/11 10:07:58;;;;;;;51.78;26.95;;;;;;;;;;5081521;28;20105;-73
2022/11/11 10:10:30;;;;;;;38.90;24.55;;;;;;;;;;5075270;28;20051;-72
2022/11/11 10:12:58;;;;;;;43.35;26.50;;;;;;;;;;5057913;28;20190;-73
2022/11/11 10:15:29;;;;;;;48.05;26.50;;;;;;;;;;5057882;28;20063;-71
2022/11/11 10:18:11;;;;;;;48.55;25.77;;;;;;;;;;5077017;28;20059;-72
2022/11/11 10:20:42;;;;;;;49.92;26.00;;;;;;;;;;5058673;28;20044;-71
2022/11/11 10:23:14;;;;;;;44.55;25.35;;;;;;;;;;5081340;28;20044;-71
2022/11/11 10:25:43;;;;;;;44.33;24.88;;;;;;;;;;5079901;28;20040;-72
2022/11/11 10:28:14;;;;;;;44.63;25.70;;;;;;;;;;5057230;28;20064;-71
2022/11/11 10:30:41;;;;;;;40.47;24.60;;;;;;;;;;5083487;28;20036;-71
2022/11/11 10:33:12;;;;;;;45.25;25.30;;;;;;;;;;5083198;28;20052;-72
2022/11/11 10:35:41;;;;;;;41.72;26.08;;;;;;;;;;5058164;28;20138;-72
2022/11/11 10:38:16;;;;;;;44.70;24.75;;;;;;;;;;5061770;28;20510;-72
2022/11/11 10:40:47;;;;;;;43.83;25.05;;;;;;;;;;5061640;28;20067;-71
2022/11/11 10:43:19;;;;;;;38.90;25.17;;;;;;;;;;5077314;28;20056;-72
2022/11/11 10:45:48;;;;;;;41.07;24.77;;;;;;;;;;5079448;28;20704;-73
2022/11/11 10:48:17;;;;;;;43.85;25.05;;;;;;;;;;5081826;28;20055;-72
2022/11/11 10:50:48;;;;;;;40.58;25.05;;;;;;;;;;5056854;28;20506;-73
2022/11/11 10:53:18;;;;;;;43.05;25.08;;;;;;;;;;5060518;28;20052;-74
2022/11/11 10:55:48;;;;;;;44.20;26.08;;;;;;;;;;5062017;28;20040;-74
2022/11/11 10:58:17;;;;;;;41.05;24.52;;;;;;;;;;5064982;28;20131;-73
2022/11/11 11:00:46;;;;;;;37.42;24.95;;;;;;;;;;5062093;28;20044;-72
2022/11/11 11:03:15;;;;;;;41.28;25.98;;;;;;;;;;5063886;28;20048;-72
2022/11/11 11:05:46;;;;;;;39.88;24.45;;;;;;;;;;5085775;28;20052;-72
2022/11/11 11:08:17;;;;;;;39.85;23.75;;;;;;;;;;5066416;28;20055;-72
2022/11/11 11:10:46;;;;;;;36.30;24.20;;;;;;;;;;5060866;28;20044;-73
2022/11/11 11:13:16;;;;;;;41.13;24.30;;;;;;;;;;5065932;28;20048;-73
2022/11/11 11:15:47;;;;;;;37.83;23.98;;;;;;;;;;5083690;28;20048;-71
2022/11/11 11:18:16;;;;;;;37.10;24.45;;;;;;;;;;5063243;28;20052;-73
2022/11/11 11:20:55;;;;;;;37.58;23.65;;;;;;;;;;5064259;28;20072;-73
2022/11/11 11:23:35;;;;;;;39.28;22.95;;;;;;;;;;5062467;28;20499;-72
2022/11/11 11:26:03;;;;;;;37.90;23.40;;;;;;;;;;5066941;28;20047;-72
2022/11/11 11:28:30;;;;;;;37.30;23.38;;;;;;;;;;5066067;28;20079;-72
2022/11/11 11:30:59;;;;;;;37.67;23.30;;;;;;;;;;5081524;28;20066;-73
2022/11/11 11:33:26;;;;;;;37.85;23.85;;;;;;;;;;5080631;28;20057;-74
2022/11/11 11:35:54;;;;;;;33.83;22.00;;;;;;;;;;5056625;28;20056;-73
2022/11/11 11:38:21;;;;;;;39.35;21.92;;;;;;;;;;5075845;28;20055;-72
2022/11/11 11:40:51;;;;;;;35.22;23.42;;;;;;;;;;5079812;28;20036;-72
2022/11/11 11:43:25;;;;;;;38.35;23.20;;;;;;;;;;5066090;28;20056;-72
2022/11/11 11:45:55;;;;;;;36.85;22.67;;;;;;;;;;5084315;28;20055;-71
2022/11/11 11:48:26;;;;;;;41.13;23.83;;;;;;;;;;5064256;28;20140;-72
2022/11/11 11:50:56;;;;;;;43.33;24.42;;;;;;;;;;5059382;28;20037;-72
2022/11/11 11:53:31;;;;;;;45.13;23.27;;;;;;;;;;5065685;28;20246;-73
2022/11/11 11:56:05;;;;;;;36.33;23.40;;;;;;;;;;5082804;28;20048;-72
2022/11/11 11:58:47;;;;;;;40.72;24.63;;;;;;;;;;5081259;28;20083;-72
2022/11/11 12:01:17;;;;;;;42.20;24.50;;;;;;;;;;5061530;28;20057;-72
2022/11/11 12:04:13;;;;;;;35.13;23.20;;;;;;;;;;5067203;28;20056;-72
2022/11/11 12:06:45;;;;;;;38.58;23.60;;;;;;;;;;5078946;28;20052;-72
2022/11/11 12:09:19;;;;;;;42.25;24.42;;;;;;;;;;5065538;28;20067;-72
2022/11/11 12:11:46;;;;;;;;;;;;;;;;;;5085659;28;20402;-73
2022/11/11 12:14:31;;;;;;;41.22;24.00;;;;;;;;;;5066975;28;20371;-72
2022/11/11 12:17:01;;;;;;;41.53;23.35;;;;;;;;;;5064774;28;20044;-74
2022/11/11 12:19:37;;;;;;;37.75;23.58;;;;;;;;;;5066838;28;20052;-71
2022/11/11 12:22:08;;;;;;;37.08;24.00;;;;;;;;;;5066968;28;20051;-74
2022/11/11 12:24:43;;;;;;;37.08;24.25;;;;;;;;;;5079841;28;20098;-71
2022/11/11 12:27:14;;;;;;;46.78;23.80;;;;;;;;;;5083170;28;20376;-73
2022/11/11 12:29:57;;;;;;;38.10;24.20;;;;;;;;;;5065887;28;20049;-74
2022/11/11 12:32:34;;;;;;;36.42;22.67;;;;;;;;;;5065240;28;20051;-72
2022/11/11 12:35:20;;;;;;;36.88;24.40;;;;;;;;;;5065539;28;20387;-71
2022/11/11 12:37:53;;;;;;;37.00;23.73;;;;;;;;;;5068159;28;20062;-72
2022/11/11 12:40:24;;;;;;;40.83;24.10;;;;;;;;;;5081364;28;20051;-73
2022/11/11 12:42:58;;;;;;;37.17;24.00;;;;;;;;;;5067103;28;20445;-74
2022/11/11 12:45:32;;;;;;;43.50;24.48;;;;;;;;;;5065249;28;20091;-72
2022/11/11 12:48:06;;;;;;;36.47;22.88;;;;;;;;;;5059142;28;20044;-72
2022/11/11 12:50:38;;;;;;;36.38;22.98;;;;;;;;;;5059455;28;20048;-72
2022/11/11 12:53:11;;;;;;;39.43;23.40;;;;;;;;;;5066837;28;20055;-74
2022/11/11 12:55:43;;;;;;;33.42;20.92;;;;;;;;;;5061115;28;20579;-73
2022/11/11 12:58:16;;;;;;;35.28;22.65;;;;;;;;;;5080719;28;20143;-72
2022/11/11 13:00:55;;;;;;;35.03;22.60;;;;;;;;;;5067425;28;20052;-73
2022/11/11 13:03:29;;;;;;;34.28;21.83;;;;;;;;;;5062762;28;20052;-72
2022/11/11 13:06:01;;;;;;;44.80;22.88;;;;;;;;;;5067317;28;20054;-72
2022/11/11 13:08:45;;;;;;;35.22;21.95;;;;;;;;;;5073459;28;20056;-72
2022/11/11 13:11:16;;;;;;;33.53;20.52;;;;;;;;;;5062429;28;20045;-73
2022/11/11 13:13:50;;;;;;;34.42;21.58;;;;;;;;;;5084679;28;20071;-73
2022/11/11 13:16:22;;;;;;;40.50;21.20;;;;;;;;;;5079700;28;20110;-72
2022/11/11 13:18:51;;;;;;;31.73;19.63;;;;;;;;;;5066243;28;20055;-73
2022/11/11 13:21:20;;;;;;;32.05;19.70;;;;;;;;;;5063998;28;20043;-72
2022/11/11 13:23:47;;;;;;;31.30;19.90;;;;;;;;;;5079009;28;20781;-74
2022/11/11 13:26:23;;;;;;;35.15;19.13;;;;;;;;;;5060530;28;20059;-72
2022/11/11 13:28:52;;;;;;;29.20;18.35;;;;;;;;;;5067620;28;20059;-73
2022/11/11 13:31:23;;;;;;;32.22;18.77;;;;;;;;;;5057848;28;20056;-72
2022/11/11 13:33:52;;;;;;;32.90;19.25;;;;;;;;;;5061908;28;20410;-73
2022/11/11 13:36:21;;;;;;;28.85;18.60;;;;;;;;;;5068734;28;20055;-72
2022/11/11 13:38:49;;;;;;;29.13;17.73;;;;;;;;;;5084136;28;20040;-74
2022/11/11 13:41:22;;;;;;;31.02;18.10;;;;;;;;;;5065992;28;20054;-74
2022/11/11 13:43:50;;;;;;;26.50;17.23;;;;;;;;;;5065186;28;20074;-72
2022/11/11 13:46:31;;;;;;;32.47;17.42;;;;;;;;;;5065931;28;20048;-72
2022/11/11 13:48:59;;;;;;;31.85;16.90;;;;;;;;;;5061243;28;20396;-72
2022/11/11 13:51:30;;;;;;;29.17;14.52;;;;;;;;;;5064747;28;20067;-72
2022/11/11 13:53:58;;;;;;;26.05;14.77;;;;;;;;;;5066677;28;20100;-73
2022/11/11 13:56:27;;;;;;;29.38;14.68;;;;;;;;;;5064766;28;20068;-72
2022/11/11 13:58:55;;;;;;;19.58;12.13;;;;;;;;;;5081859;28;20040;-71
2022/11/11 14:01:23;;;;;;;24.85;13.02;;;;;;;;;;5061153;28;20063;-72
2022/11/11 14:04:01;;;;;;;21.23;14.38;;;;;;;;;;5083408;28;20071;-73
2022/11/11 14:06:39;;;;;;;27.73;15.55;;;;;;;;;;5065664;28;20057;-72
2022/11/11 14:09:06;;;;;;;26.00;14.75;;;;;;;;;;5069407;28;20071;-72
2022/11/11 14:11:34;;;;;;;31.02;15.38;;;;;;;;;;5083904;28;20486;-73
2022/11/11 14:14:16;;;;;;;25.50;15.98;;;;;;;;;;5080421;28;20425;-72
2022/11/11 14:17:00;;;;;;;29.08;15.02;;;;;;;;;;5059113;28;20052;-72
2022/11/11 14:19:32;;;;;;;26.50;15.40;;;;;;;;;;5062703;28;20533;-73
2022/11/11 14:22:00;;;;;;;30.13;14.88;;;;;;;;;;5066348;28;20051;-72
2022/11/11 14:24:31;;;;;;;27.50;14.68;;;;;;;;;;5063205;28;20056;-73
2022/11/11 14:26:59;;;;;;;22.73;13.68;;;;;;;;;;5082555;28;20051;-73
2022/11/11 14:29:33;;;;;;;26.75;13.75;;;;;;;;;;5063053;28;20479;-71
2022/11/11 14:32:07;;;;;;;30.08;15.45;;;;;;;;;;5077071;28;20133;-73
2022/11/11 14:34:45;;;;;;;27.30;15.77;;;;;;;;;;5063449;28;20056;-72
2022/11/11 14:37:18;;;;;;;28.00;15.65;;;;;;;;;;5082424;28;20044;-74
2022/11/11 14:39:45;;;;;;;;;;;;;;;;;;5062086;28;20059;-72
2022/11/11 14:42:31;;;;;;;28.25;16.52;;;;;;;;;;5063741;28;19920;-73
2022/11/11 14:44:58;;;;;;;24.83;16.55;;;;;;;;;;5065892;28;20054;-74
2022/11/11 14:47:31;;;;;;;27.67;17.15;;;;;;;;;;5080539;28;20139;-72
2022/11/11 14:50:00;;;;;;;30.70;17.65;;;;;;;;;;5079977;28;20055;-72
2022/11/11 14:52:30;;;;;;;30.08;16.20;;;;;;;;;;5065223;28;20048;-72
2022/11/11 14:55:00;;;;;;;26.88;15.98;;;;;;;;;;5065125;28;20044;-73
2022/11/11 14:57:30;;;;;;;26.58;16.08;;;;;;;;;;5082548;28;20052;-73
2022/11/11 14:59:57;;;;;;;29.38;15.73;;;;;;;;;;5067882;28;20239;-72
2022/11/11 15:02:28;;;;;;;26.40;14.48;;;;;;;;;;5064015;28;20044;-72
2022/11/11 15:04:57;;;;;;;23.90;14.57;;;;;;;;;;5077324;28;20044;-71
2022/11/11 15:07:34;;;;;;;23.85;14.30;;;;;;;;;;5081262;28;20052;-71
2022/11/11 15:10:11;;;;;;;27.67;14.15;;;;;;;;;;5085340;28;20067;-72
2022/11/11 15:12:44;;;;;;;27.27;14.02;;;;;;;;;;5065815;28;20051;-73
2022/11/11 15:15:15;;;;;;;30.50;13.70;;;;;;;;;;5068424;28;20048;-72
2022/11/11 15:17:49;;;;;;;22.90;12.70;;;;;;;;;;5062737;28;20313;-72
2022/11/11 15:20:29;;;;;;;27.20;13.48;;;;;;;;;;5061953;28;20058;-71
2022/11/11 15:23:00;;;;;;;24.73;14.38;;;;;;;;;;5061640;28;20125;-71
2022/11/11 15:25:35;;;;;;;30.30;15.73;;;;;;;;;;5062770;28;20052;-72
2022/11/11 15:28:05;;;;;;;25.48;15.07;;;;;;;;;;5062534;28;20146;-70
2022/11/11 15:30:46;;;;;;;30.52;17.88;;;;;;;;;;5063918;28;20048;-71
2022/11/11 15:33:18;;;;;;;26.50;17.90;;;;;;;;;;5081104;28;20037;-72
2022/11/11 15:35:50;;;;;;;28.90;19.35;;;;;;;;;;5088733;28;20044;-72
2022/11/11 15:38:19;;;;;;;33.92;20.40;;;;;;;;;;5065747;28;20058;-72
2022/11/11 15:40:47;;;;;;;32.65;19.55;;;;;;;;;;5080670;28;20518;-71
2022/11/11 15:43:16;;;;;;;30.10;19.83;;;;;;;;;;5062961;28;20703;-71
2022/11/11 15:45:43;;;;;;;30.30;19.42;;;;;;;;;;5062833;28;20132;-71
2022/11/11 15:48:17;;;;;;;32.13;20.05;;;;;;;;;;5078349;28;20059;-71
2022/11/11 15:50:44;;;;;;;34.13;21.13;;;;;;;;;;5081310;28;20070;-72
2022/11/11 15:53:12;;;;;;;30.13;18.83;;;;;;;;;;5078039;28;20051;-73
2022/11/11 15:55:41;;;;;;;29.75;18.50;;;;;;;;;;5064092;28;20436;-71
2022/11/11 15:58:09;;;;;;;30.15;19.50;;;;;;;;;;5083966;28;20052;-72